sensor_id;sensor_type;location;lat;lon;timestamp;temperature;humidity
65231;DHT22;51813;40.666;16.602;2023-07-29T00:01:34;27.70;56.60
65231;DHT22;51813;40.666;16.602;2023-07-29T00:04:00;27.70;56.90
65231;DHT22;51813;40.666;16.602;2023-07-29T00:06:26;27.70;56.70
65231;DHT22;51813;40.666;16.602;2023-07-29T00:08:52;27.70;56.90
65231;DHT22;51813;40.666;16.602;2023-07-29T00:11:18;27.70;56.80
65231;DHT22;51813;40.666;16.602;2023-07-29T00:13:44;27.70;56.70
65231;DHT22;51813;40.666;16.602;2023-07-29T00:16:09;27.70;56.80
65231;DHT22;51813;40.666;16.602;2023-07-29T00:18:35;27.80;56.30
65231;DHT22;51813;40.666;16.602;2023-07-29T00:21:01;27.70;56.50
65231;DHT22;51813;40.666;16.602;2023-07-29T00:23:27;27.70;56.40
65231;DHT22;51813;40.666;16.602;2023-07-29T00:25:53;27.70;56.50
65231;DHT22;51813;40.666;16.602;2023-07-29T00:28:18;27.70;56.60
65231;DHT22;51813;40.666;16.602;2023-07-29T00:30:44;27.60;56.90
65231;DHT22;51813;40.666;16.602;2023-07-29T00:33:10;27.60;56.60
65231;DHT22;51813;40.666;16.602;2023-07-29T00:35:35;27.60;56.50
65231;DHT22;51813;40.666;16.602;2023-07-29T00:38:01;27.60;56.90
65231;DHT22;51813;40.666;16.602;2023-07-29T00:40:28;27.60;56.50
65231;DHT22;51813;40.666;16.602;2023-07-29T00:42:55;27.60;56.30
65231;DHT22;51813;40.666;16.602;2023-07-29T00:45:21;27.70;56.50
65231;DHT22;51813;40.666;16.602;2023-07-29T00:47:47;27.70;56.10
65231;DHT22;51813;40.666;16.602;2023-07-29T00:50:15;27.70;56.10
65231;DHT22;51813;40.666;16.602;2023-07-29T00:52:41;27.60;56.00
65231;DHT22;51813;40.666;16.602;2023-07-29T00:55:07;27.60;56.00
65231;DHT22;51813;40.666;16.602;2023-07-29T00:57:33;27.60;56.30
65231;DHT22;51813;40.666;16.602;2023-07-29T01:00:00;27.60;56.20
65231;DHT22;51813;40.666;16.602;2023-07-29T01:02:26;27.50;56.50
65231;DHT22;51813;40.666;16.602;2023-07-29T01:04:57;27.50;57.10
65231;DHT22;51813;40.666;16.602;2023-07-29T01:07:53;27.50;56.50
65231;DHT22;51813;40.666;16.602;2023-07-29T01:10:43;27.50;56.30
65231;DHT22;51813;40.666;16.602;2023-07-29T01:13:33;27.50;56.70
65231;DHT22;51813;40.666;16.602;2023-07-29T01:16:04;27.50;56.40
65231;DHT22;51813;40.666;16.602;2023-07-29T01:18:32;27.60;56.30
65231;DHT22;51813;40.666;16.602;2023-07-29T01:21:04;27.60;56.00
65231;DHT22;51813;40.666;16.602;2023-07-29T01:23:34;27.50;56.50
65231;DHT22;51813;40.666;16.602;2023-07-29T01:26:00;27.40;56.80
65231;DHT22;51813;40.666;16.602;2023-07-29T01:28:27;27.40;57.00
65231;DHT22;51813;40.666;16.602;2023-07-29T01:31:01;27.40;56.80
65231;DHT22;51813;40.666;16.602;2023-07-29T01:33:33;27.30;56.80
65231;DHT22;51813;40.666;16.602;2023-07-29T01:36:10;27.30;56.50
65231;DHT22;51813;40.666;16.602;2023-07-29T01:38:40;27.40;56.70
65231;DHT22;51813;40.666;16.602;2023-07-29T01:41:08;27.40;56.00
65231;DHT22;51813;40.666;16.602;2023-07-29T01:43:34;27.50;56.50
65231;DHT22;51813;40.666;16.602;2023-07-29T01:46:07;27.50;55.90
65231;DHT22;51813;40.666;16.602;2023-07-29T01:48:32;27.50;56.10
65231;DHT22;51813;40.666;16.602;2023-07-29T01:50:58;27.60;55.60
65231;DHT22;51813;40.666;16.602;2023-07-29T01:53:24;27.50;55.40
65231;DHT22;51813;40.666;16.602;2023-07-29T01:55:49;27.50;54.00
65231;DHT22;51813;40.666;16.602;2023-07-29T01:58:15;27.30;55.50
65231;DHT22;51813;40.666;16.602;2023-07-29T02:00:41;27.30;55.90
65231;DHT22;51813;40.666;16.602;2023-07-29T02:03:06;27.40;55.90
65231;DHT22;51813;40.666;16.602;2023-07-29T02:05:32;27.40;54.50
65231;DHT22;51813;40.666;16.602;2023-07-29T02:07:58;27.30;55.80
65231;DHT22;51813;40.666;16.602;2023-07-29T02:10:24;27.40;55.30
65231;DHT22;51813;40.666;16.602;2023-07-29T02:12:49;27.50;54.70
65231;DHT22;51813;40.666;16.602;2023-07-29T02:15:15;27.40;53.80
65231;DHT22;51813;40.666;16.602;2023-07-29T02:17:42;27.30;53.90
65231;DHT22;51813;40.666;16.602;2023-07-29T02:20:08;27.30;54.50
65231;DHT22;51813;40.666;16.602;2023-07-29T02:22:34;27.20;54.20
65231;DHT22;51813;40.666;16.602;2023-07-29T02:25:00;27.20;54.10
65231;DHT22;51813;40.666;16.602;2023-07-29T02:27:26;27.20;53.90
65231;DHT22;51813;40.666;16.602;2023-07-29T02:29:53;27.20;55.10
65231;DHT22;51813;40.666;16.602;2023-07-29T02:32:19;27.20;54.90
65231;DHT22;51813;40.666;16.602;2023-07-29T02:34:46;27.20;54.80
65231;DHT22;51813;40.666;16.602;2023-07-29T02:37:12;27.30;54.40
65231;DHT22;51813;40.666;16.602;2023-07-29T02:39:37;27.20;54.30
65231;DHT22;51813;40.666;16.602;2023-07-29T02:42:03;27.10;53.50
65231;DHT22;51813;40.666;16.602;2023-07-29T02:44:29;27.10;53.80
65231;DHT22;51813;40.666;16.602;2023-07-29T02:46:55;27.10;54.00
65231;DHT22;51813;40.666;16.602;2023-07-29T02:49:22;27.10;53.90
65231;DHT22;51813;40.666;16.602;2023-07-29T02:51:49;27.10;52.40
65231;DHT22;51813;40.666;16.602;2023-07-29T02:54:14;27.10;52.30
65231;DHT22;51813;40.666;16.602;2023-07-29T02:56:40;27.10;53.50
65231;DHT22;51813;40.666;16.602;2023-07-29T02:59:06;27.00;52.80
65231;DHT22;51813;40.666;16.602;2023-07-29T03:01:31;27.00;53.90
65231;DHT22;51813;40.666;16.602;2023-07-29T03:03:57;27.10;53.10
65231;DHT22;51813;40.666;16.602;2023-07-29T03:06:23;27.10;53.40
65231;DHT22;51813;40.666;16.602;2023-07-29T03:08:49;27.10;53.00
65231;DHT22;51813;40.666;16.602;2023-07-29T03:11:15;27.20;52.50
65231;DHT22;51813;40.666;16.602;2023-07-29T03:13:41;27.20;53.20
65231;DHT22;51813;40.666;16.602;2023-07-29T03:16:09;27.20;53.30
65231;DHT22;51813;40.666;16.602;2023-07-29T03:18:35;27.20;52.90
65231;DHT22;51813;40.666;16.602;2023-07-29T03:21:01;27.20;52.40
65231;DHT22;51813;40.666;16.602;2023-07-29T03:23:28;27.20;51.70
65231;DHT22;51813;40.666;16.602;2023-07-29T03:25:58;27.20;52.30
65231;DHT22;51813;40.666;16.602;2023-07-29T03:28:26;27.20;52.20
65231;DHT22;51813;40.666;16.602;2023-07-29T03:30:56;27.20;52.00
65231;DHT22;51813;40.666;16.602;2023-07-29T03:33:21;27.10;52.80
65231;DHT22;51813;40.666;16.602;2023-07-29T03:35:47;27.10;52.80
65231;DHT22;51813;40.666;16.602;2023-07-29T03:38:13;27.20;52.30
65231;DHT22;51813;40.666;16.602;2023-07-29T03:40:40;27.20;52.40
65231;DHT22;51813;40.666;16.602;2023-07-29T03:43:07;27.30;52.30
65231;DHT22;51813;40.666;16.602;2023-07-29T03:45:33;27.30;53.00
65231;DHT22;51813;40.666;16.602;2023-07-29T03:47:59;27.30;52.40
65231;DHT22;51813;40.666;16.602;2023-07-29T03:50:25;27.30;52.20
65231;DHT22;51813;40.666;16.602;2023-07-29T03:52:51;27.30;51.90
65231;DHT22;51813;40.666;16.602;2023-07-29T03:55:16;27.30;51.50
65231;DHT22;51813;40.666;16.602;2023-07-29T03:57:42;27.30;52.00
65231;DHT22;51813;40.666;16.602;2023-07-29T04:00:08;27.10;51.80
65231;DHT22;51813;40.666;16.602;2023-07-29T04:02:36;27.10;51.80
65231;DHT22;51813;40.666;16.602;2023-07-29T04:05:03;27.00;52.80
65231;DHT22;51813;40.666;16.602;2023-07-29T04:07:30;27.10;51.90
65231;DHT22;51813;40.666;16.602;2023-07-29T04:09:56;27.10;52.70
65231;DHT22;51813;40.666;16.602;2023-07-29T04:12:22;27.00;52.20
65231;DHT22;51813;40.666;16.602;2023-07-29T04:14:48;27.10;51.50
65231;DHT22;51813;40.666;16.602;2023-07-29T04:17:14;27.10;52.70
65231;DHT22;51813;40.666;16.602;2023-07-29T04:19:40;27.20;52.10
65231;DHT22;51813;40.666;16.602;2023-07-29T04:22:06;27.20;51.90
65231;DHT22;51813;40.666;16.602;2023-07-29T04:24:32;27.10;51.50
65231;DHT22;51813;40.666;16.602;2023-07-29T04:26:57;27.20;51.30
65231;DHT22;51813;40.666;16.602;2023-07-29T04:29:23;27.10;51.60
65231;DHT22;51813;40.666;16.602;2023-07-29T04:31:52;27.00;51.90
65231;DHT22;51813;40.666;16.602;2023-07-29T04:34:18;27.00;52.30
65231;DHT22;51813;40.666;16.602;2023-07-29T04:36:45;27.00;51.10
65231;DHT22;51813;40.666;16.602;2023-07-29T04:39:11;26.90;52.10
65231;DHT22;51813;40.666;16.602;2023-07-29T04:41:36;27.00;52.00
65231;DHT22;51813;40.666;16.602;2023-07-29T04:44:02;27.00;51.10
65231;DHT22;51813;40.666;16.602;2023-07-29T04:46:28;27.00;51.30
65231;DHT22;51813;40.666;16.602;2023-07-29T04:48:54;26.90;51.10
65231;DHT22;51813;40.666;16.602;2023-07-29T04:51:19;27.00;51.20
65231;DHT22;51813;40.666;16.602;2023-07-29T04:53:45;26.90;51.30
65231;DHT22;51813;40.666;16.602;2023-07-29T04:56:11;26.90;50.60
65231;DHT22;51813;40.666;16.602;2023-07-29T04:58:37;27.00;51.40
65231;DHT22;51813;40.666;16.602;2023-07-29T05:01:03;26.90;50.40
65231;DHT22;51813;40.666;16.602;2023-07-29T05:03:29;26.90;50.90
65231;DHT22;51813;40.666;16.602;2023-07-29T05:05:55;26.90;51.10
65231;DHT22;51813;40.666;16.602;2023-07-29T05:08:21;26.90;51.00
65231;DHT22;51813;40.666;16.602;2023-07-29T05:10:51;26.90;50.60
65231;DHT22;51813;40.666;16.602;2023-07-29T05:13:18;26.90;50.90
65231;DHT22;51813;40.666;16.602;2023-07-29T05:15:43;27.00;50.50
65231;DHT22;51813;40.666;16.602;2023-07-29T05:18:09;26.90;51.20
65231;DHT22;51813;40.666;16.602;2023-07-29T05:20:35;26.90;50.40
65231;DHT22;51813;40.666;16.602;2023-07-29T05:23:00;27.00;50.50
65231;DHT22;51813;40.666;16.602;2023-07-29T05:25:26;27.00;50.60
65231;DHT22;51813;40.666;16.602;2023-07-29T05:27:52;26.90;49.60
65231;DHT22;51813;40.666;16.602;2023-07-29T05:30:18;26.90;49.70
65231;DHT22;51813;40.666;16.602;2023-07-29T05:32:44;27.00;50.30
65231;DHT22;51813;40.666;16.602;2023-07-29T05:35:10;27.00;50.60
65231;DHT22;51813;40.666;16.602;2023-07-29T05:37:38;27.00;50.50
65231;DHT22;51813;40.666;16.602;2023-07-29T05:40:05;27.00;49.90
65231;DHT22;51813;40.666;16.602;2023-07-29T05:42:32;27.00;50.50
65231;DHT22;51813;40.666;16.602;2023-07-29T05:44:58;27.00;50.30
65231;DHT22;51813;40.666;16.602;2023-07-29T05:47:23;27.10;50.50
65231;DHT22;51813;40.666;16.602;2023-07-29T05:49:49;27.10;51.20
65231;DHT22;51813;40.666;16.602;2023-07-29T05:52:15;27.10;50.50
65231;DHT22;51813;40.666;16.602;2023-07-29T05:54:41;27.10;49.90
65231;DHT22;51813;40.666;16.602;2023-07-29T05:57:09;27.10;49.00
65231;DHT22;51813;40.666;16.602;2023-07-29T05:59:35;27.00;50.20
65231;DHT22;51813;40.666;16.602;2023-07-29T06:02:01;27.00;50.30
65231;DHT22;51813;40.666;16.602;2023-07-29T06:04:26;27.00;50.30
65231;DHT22;51813;40.666;16.602;2023-07-29T06:06:52;27.00;50.70
65231;DHT22;51813;40.666;16.602;2023-07-29T06:09:18;27.00;49.90
65231;DHT22;51813;40.666;16.602;2023-07-29T06:11:44;27.00;49.90
65231;DHT22;51813;40.666;16.602;2023-07-29T06:14:09;27.00;50.10
65231;DHT22;51813;40.666;16.602;2023-07-29T06:16:35;27.00;50.50
65231;DHT22;51813;40.666;16.602;2023-07-29T06:19:01;27.00;50.50
65231;DHT22;51813;40.666;16.602;2023-07-29T06:21:26;27.00;50.00
65231;DHT22;51813;40.666;16.602;2023-07-29T06:23:52;27.00;49.70
65231;DHT22;51813;40.666;16.602;2023-07-29T06:26:18;27.00;49.60
65231;DHT22;51813;40.666;16.602;2023-07-29T06:28:44;27.00;49.90
65231;DHT22;51813;40.666;16.602;2023-07-29T06:31:09;27.00;50.10
65231;DHT22;51813;40.666;16.602;2023-07-29T06:33:35;27.00;49.20
65231;DHT22;51813;40.666;16.602;2023-07-29T06:36:01;26.90;49.70
65231;DHT22;51813;40.666;16.602;2023-07-29T06:38:27;27.00;48.80
65231;DHT22;51813;40.666;16.602;2023-07-29T06:40:52;27.00;49.30
65231;DHT22;51813;40.666;16.602;2023-07-29T06:43:18;27.00;48.40
65231;DHT22;51813;40.666;16.602;2023-07-29T06:45:44;27.00;48.60
65231;DHT22;51813;40.666;16.602;2023-07-29T06:48:09;27.00;48.40
65231;DHT22;51813;40.666;16.602;2023-07-29T06:50:35;27.00;48.50
65231;DHT22;51813;40.666;16.602;2023-07-29T06:53:01;27.00;48.70
65231;DHT22;51813;40.666;16.602;2023-07-29T06:55:26;27.00;48.50
65231;DHT22;51813;40.666;16.602;2023-07-29T06:57:52;27.00;48.70
65231;DHT22;51813;40.666;16.602;2023-07-29T07:00:18;27.00;49.10
65231;DHT22;51813;40.666;16.602;2023-07-29T07:02:43;27.00;49.40
65231;DHT22;51813;40.666;16.602;2023-07-29T07:05:09;27.10;49.40
65231;DHT22;51813;40.666;16.602;2023-07-29T07:07:35;27.10;49.10
65231;DHT22;51813;40.666;16.602;2023-07-29T07:10:01;27.10;49.70
65231;DHT22;51813;40.666;16.602;2023-07-29T07:12:26;27.10;49.10
65231;DHT22;51813;40.666;16.602;2023-07-29T07:14:52;27.10;49.30
65231;DHT22;51813;40.666;16.602;2023-07-29T07:17:18;27.10;49.20
65231;DHT22;51813;40.666;16.602;2023-07-29T07:19:44;27.20;49.10
65231;DHT22;51813;40.666;16.602;2023-07-29T07:22:09;27.20;49.30
65231;DHT22;51813;40.666;16.602;2023-07-29T07:24:35;27.20;49.00
65231;DHT22;51813;40.666;16.602;2023-07-29T07:27:01;27.20;49.00
65231;DHT22;51813;40.666;16.602;2023-07-29T07:29:27;27.20;49.00
65231;DHT22;51813;40.666;16.602;2023-07-29T07:31:54;27.20;49.60
65231;DHT22;51813;40.666;16.602;2023-07-29T07:34:20;27.20;49.00
65231;DHT22;51813;40.666;16.602;2023-07-29T07:36:46;27.20;49.00
65231;DHT22;51813;40.666;16.602;2023-07-29T07:39:12;27.20;49.10
65231;DHT22;51813;40.666;16.602;2023-07-29T07:41:38;27.20;49.10
65231;DHT22;51813;40.666;16.602;2023-07-29T07:44:04;27.20;48.90
65231;DHT22;51813;40.666;16.602;2023-07-29T07:46:29;27.20;48.70
65231;DHT22;51813;40.666;16.602;2023-07-29T07:48:55;27.30;48.90
65231;DHT22;51813;40.666;16.602;2023-07-29T07:51:21;27.30;48.60
65231;DHT22;51813;40.666;16.602;2023-07-29T07:53:46;27.30;48.80
65231;DHT22;51813;40.666;16.602;2023-07-29T07:56:12;27.30;48.60
65231;DHT22;51813;40.666;16.602;2023-07-29T07:58:38;27.30;48.70
65231;DHT22;51813;40.666;16.602;2023-07-29T08:01:08;27.30;48.60
65231;DHT22;51813;40.666;16.602;2023-07-29T08:03:34;27.30;48.40
65231;DHT22;51813;40.666;16.602;2023-07-29T08:06:00;27.30;48.10
65231;DHT22;51813;40.666;16.602;2023-07-29T08:08:26;27.40;48.40
65231;DHT22;51813;40.666;16.602;2023-07-29T08:10:53;27.40;48.40
65231;DHT22;51813;40.666;16.602;2023-07-29T08:13:21;27.40;48.30
65231;DHT22;51813;40.666;16.602;2023-07-29T08:15:48;27.40;48.20
65231;DHT22;51813;40.666;16.602;2023-07-29T08:18:13;27.40;48.20
65231;DHT22;51813;40.666;16.602;2023-07-29T08:20:39;27.40;48.50
65231;DHT22;51813;40.666;16.602;2023-07-29T08:23:05;27.40;48.70
65231;DHT22;51813;40.666;16.602;2023-07-29T08:25:30;27.40;48.70
65231;DHT22;51813;40.666;16.602;2023-07-29T08:27:56;27.40;48.50
65231;DHT22;51813;40.666;16.602;2023-07-29T08:30:22;27.40;48.30
65231;DHT22;51813;40.666;16.602;2023-07-29T08:32:48;27.40;48.40
65231;DHT22;51813;40.666;16.602;2023-07-29T08:35:13;27.40;48.80
65231;DHT22;51813;40.666;16.602;2023-07-29T08:37:39;27.40;48.20
65231;DHT22;51813;40.666;16.602;2023-07-29T08:40:05;27.40;48.50
65231;DHT22;51813;40.666;16.602;2023-07-29T08:42:32;27.40;48.40
65231;DHT22;51813;40.666;16.602;2023-07-29T08:45:06;27.40;48.70
65231;DHT22;51813;40.666;16.602;2023-07-29T08:47:33;27.50;48.40
65231;DHT22;51813;40.666;16.602;2023-07-29T08:50:01;27.50;48.50
65231;DHT22;51813;40.666;16.602;2023-07-29T08:52:29;27.50;48.30
65231;DHT22;51813;40.666;16.602;2023-07-29T08:54:55;27.50;48.50
65231;DHT22;51813;40.666;16.602;2023-07-29T08:57:22;27.50;48.40
65231;DHT22;51813;40.666;16.602;2023-07-29T08:59:49;27.50;48.70
65231;DHT22;51813;40.666;16.602;2023-07-29T09:02:14;27.50;48.80
65231;DHT22;51813;40.666;16.602;2023-07-29T09:04:40;27.50;49.00
65231;DHT22;51813;40.666;16.602;2023-07-29T09:07:05;27.60;48.30
65231;DHT22;51813;40.666;16.602;2023-07-29T09:09:32;27.60;48.30
65231;DHT22;51813;40.666;16.602;2023-07-29T09:11:58;27.60;48.10
65231;DHT22;51813;40.666;16.602;2023-07-29T09:14:24;27.70;48.10
65231;DHT22;51813;40.666;16.602;2023-07-29T09:16:49;27.70;47.60
65231;DHT22;51813;40.666;16.602;2023-07-29T09:19:15;27.60;47.80
65231;DHT22;51813;40.666;16.602;2023-07-29T09:21:41;27.70;48.80
65231;DHT22;51813;40.666;16.602;2023-07-29T09:24:07;27.60;47.70
65231;DHT22;51813;40.666;16.602;2023-07-29T09:26:34;27.60;48.50
65231;DHT22;51813;40.666;16.602;2023-07-29T09:29:00;27.60;47.30
65231;DHT22;51813;40.666;16.602;2023-07-29T09:31:28;27.70;48.50
65231;DHT22;51813;40.666;16.602;2023-07-29T09:34:02;27.70;49.50
65231;DHT22;51813;40.666;16.602;2023-07-29T09:36:30;27.70;50.00
65231;DHT22;51813;40.666;16.602;2023-07-29T09:38:57;27.70;48.90
65231;DHT22;51813;40.666;16.602;2023-07-29T09:41:28;27.80;48.40
65231;DHT22;51813;40.666;16.602;2023-07-29T09:43:57;27.80;48.70
65231;DHT22;51813;40.666;16.602;2023-07-29T09:46:24;27.80;48.60
65231;DHT22;51813;40.666;16.602;2023-07-29T09:48:54;27.80;47.50
65231;DHT22;51813;40.666;16.602;2023-07-29T09:51:21;27.80;48.50
65231;DHT22;51813;40.666;16.602;2023-07-29T09:53:47;27.80;48.20
65231;DHT22;51813;40.666;16.602;2023-07-29T09:56:14;27.80;48.10
65231;DHT22;51813;40.666;16.602;2023-07-29T09:58:43;27.80;47.90
65231;DHT22;51813;40.666;16.602;2023-07-29T10:01:09;27.80;48.00
65231;DHT22;51813;40.666;16.602;2023-07-29T10:03:36;27.80;47.40
65231;DHT22;51813;40.666;16.602;2023-07-29T10:06:06;27.80;47.70
65231;DHT22;51813;40.666;16.602;2023-07-29T10:08:33;27.80;48.50
65231;DHT22;51813;40.666;16.602;2023-07-29T10:11:08;27.80;48.20
65231;DHT22;51813;40.666;16.602;2023-07-29T10:13:34;27.80;48.10
65231;DHT22;51813;40.666;16.602;2023-07-29T10:16:00;27.80;47.80
65231;DHT22;51813;40.666;16.602;2023-07-29T10:18:31;27.80;48.20
65231;DHT22;51813;40.666;16.602;2023-07-29T10:20:59;27.80;48.50
65231;DHT22;51813;40.666;16.602;2023-07-29T10:23:26;27.80;48.50
65231;DHT22;51813;40.666;16.602;2023-07-29T10:26:02;27.80;48.50
65231;DHT22;51813;40.666;16.602;2023-07-29T10:28:30;27.90;48.00
65231;DHT22;51813;40.666;16.602;2023-07-29T10:30:59;27.90;48.90
65231;DHT22;51813;40.666;16.602;2023-07-29T10:33:26;27.90;49.30
65231;DHT22;51813;40.666;16.602;2023-07-29T10:35:53;27.90;48.50
65231;DHT22;51813;40.666;16.602;2023-07-29T10:38:21;27.90;48.80
65231;DHT22;51813;40.666;16.602;2023-07-29T10:43:23;27.90;47.20
65231;DHT22;51813;40.666;16.602;2023-07-29T10:45:49;27.90;47.20
65231;DHT22;51813;40.666;16.602;2023-07-29T10:53:46;27.90;46.20
65231;DHT22;51813;40.666;16.602;2023-07-29T10:56:13;27.90;46.20
65231;DHT22;51813;40.666;16.602;2023-07-29T10:58:38;27.90;46.00
65231;DHT22;51813;40.666;16.602;2023-07-29T11:01:13;28.00;47.80
65231;DHT22;51813;40.666;16.602;2023-07-29T11:09:41;27.90;47.80
65231;DHT22;51813;40.666;16.602;2023-07-29T11:15:28;28.00;49.40
65231;DHT22;51813;40.666;16.602;2023-07-29T11:18:01;27.90;47.00
65231;DHT22;51813;40.666;16.602;2023-07-29T11:20:32;27.90;47.50
65231;DHT22;51813;40.666;16.602;2023-07-29T11:23:02;27.90;47.60
65231;DHT22;51813;40.666;16.602;2023-07-29T11:25:29;28.00;47.60
65231;DHT22;51813;40.666;16.602;2023-07-29T11:27:57;27.90;47.50
65231;DHT22;51813;40.666;16.602;2023-07-29T11:30:23;27.90;47.90
65231;DHT22;51813;40.666;16.602;2023-07-29T11:32:53;27.90;47.90
65231;DHT22;51813;40.666;16.602;2023-07-29T11:35:19;27.90;48.30
65231;DHT22;51813;40.666;16.602;2023-07-29T11:37:49;27.90;48.40
65231;DHT22;51813;40.666;16.602;2023-07-29T11:42:42;27.90;48.40
65231;DHT22;51813;40.666;16.602;2023-07-29T11:45:08;27.90;48.50
65231;DHT22;51813;40.666;16.602;2023-07-29T11:47:35;27.90;48.20
65231;DHT22;51813;40.666;16.602;2023-07-29T11:50:10;28.00;47.10
65231;DHT22;51813;40.666;16.602;2023-07-29T11:52:44;28.20;47.40
65231;DHT22;51813;40.666;16.602;2023-07-29T11:55:12;28.40;47.70
65231;DHT22;51813;40.666;16.602;2023-07-29T11:57:38;28.50;47.60
65231;DHT22;51813;40.666;16.602;2023-07-29T12:00:06;28.60;47.90
65231;DHT22;51813;40.666;16.602;2023-07-29T12:02:33;28.80;47.70
65231;DHT22;51813;40.666;16.602;2023-07-29T12:05:00;28.90;47.70
65231;DHT22;51813;40.666;16.602;2023-07-29T12:07:26;29.00;47.60
65231;DHT22;51813;40.666;16.602;2023-07-29T12:09:52;29.10;47.60
65231;DHT22;51813;40.666;16.602;2023-07-29T12:12:18;29.10;47.00
65231;DHT22;51813;40.666;16.602;2023-07-29T12:14:45;29.20;46.70
65231;DHT22;51813;40.666;16.602;2023-07-29T12:17:14;29.40;46.40
65231;DHT22;51813;40.666;16.602;2023-07-29T12:19:41;29.50;45.70
65231;DHT22;51813;40.666;16.602;2023-07-29T12:22:08;29.50;46.00
65231;DHT22;51813;40.666;16.602;2023-07-29T12:24:36;29.70;45.50
65231;DHT22;51813;40.666;16.602;2023-07-29T12:27:02;29.70;45.00
65231;DHT22;51813;40.666;16.602;2023-07-29T12:29:28;29.70;44.60
65231;DHT22;51813;40.666;16.602;2023-07-29T12:31:59;29.70;44.20
65231;DHT22;51813;40.666;16.602;2023-07-29T12:34:26;29.80;44.80
65231;DHT22;51813;40.666;16.602;2023-07-29T12:36:54;29.90;44.70
65231;DHT22;51813;40.666;16.602;2023-07-29T12:39:21;30.00;45.40
65231;DHT22;51813;40.666;16.602;2023-07-29T12:41:49;30.10;45.10
65231;DHT22;51813;40.666;16.602;2023-07-29T12:44:15;30.10;45.30
65231;DHT22;51813;40.666;16.602;2023-07-29T12:46:41;30.10;44.70
65231;DHT22;51813;40.666;16.602;2023-07-29T12:49:07;30.10;44.60
65231;DHT22;51813;40.666;16.602;2023-07-29T12:51:33;30.20;44.90
65231;DHT22;51813;40.666;16.602;2023-07-29T12:53:58;30.20;45.20
65231;DHT22;51813;40.666;16.602;2023-07-29T12:56:24;30.20;44.90
65231;DHT22;51813;40.666;16.602;2023-07-29T12:58:50;30.20;45.20
65231;DHT22;51813;40.666;16.602;2023-07-29T13:01:15;30.20;45.10
65231;DHT22;51813;40.666;16.602;2023-07-29T13:03:45;30.20;43.10
65231;DHT22;51813;40.666;16.602;2023-07-29T13:06:11;30.20;43.10
65231;DHT22;51813;40.666;16.602;2023-07-29T13:08:37;30.20;43.40
65231;DHT22;51813;40.666;16.602;2023-07-29T13:11:03;30.40;43.60
65231;DHT22;51813;40.666;16.602;2023-07-29T13:13:29;30.30;43.70
65231;DHT22;51813;40.666;16.602;2023-07-29T13:15:55;30.40;44.20
65231;DHT22;51813;40.666;16.602;2023-07-29T13:18:21;30.40;43.80
65231;DHT22;51813;40.666;16.602;2023-07-29T13:20:47;30.40;42.80
65231;DHT22;51813;40.666;16.602;2023-07-29T13:23:13;30.40;43.40
65231;DHT22;51813;40.666;16.602;2023-07-29T13:25:39;30.50;43.90
65231;DHT22;51813;40.666;16.602;2023-07-29T13:28:04;30.50;44.20
65231;DHT22;51813;40.666;16.602;2023-07-29T13:30:30;30.40;44.10
65231;DHT22;51813;40.666;16.602;2023-07-29T13:32:56;30.40;43.90
65231;DHT22;51813;40.666;16.602;2023-07-29T13:35:22;30.50;43.20
65231;DHT22;51813;40.666;16.602;2023-07-29T13:37:47;30.60;44.10
65231;DHT22;51813;40.666;16.602;2023-07-29T13:40:13;30.60;44.20
65231;DHT22;51813;40.666;16.602;2023-07-29T13:42:39;30.70;44.40
65231;DHT22;51813;40.666;16.602;2023-07-29T13:45:05;30.80;44.50
65231;DHT22;51813;40.666;16.602;2023-07-29T13:47:31;30.70;44.60
65231;DHT22;51813;40.666;16.602;2023-07-29T13:49:56;30.60;43.80
65231;DHT22;51813;40.666;16.602;2023-07-29T13:52:22;30.70;43.80
65231;DHT22;51813;40.666;16.602;2023-07-29T13:54:48;30.80;42.20
65231;DHT22;51813;40.666;16.602;2023-07-29T13:57:13;30.80;42.20
65231;DHT22;51813;40.666;16.602;2023-07-29T13:59:39;30.90;42.00
65231;DHT22;51813;40.666;16.602;2023-07-29T14:02:05;30.90;42.40
65231;DHT22;51813;40.666;16.602;2023-07-29T14:04:32;31.00;42.30
65231;DHT22;51813;40.666;16.602;2023-07-29T14:06:58;30.90;41.60
65231;DHT22;51813;40.666;16.602;2023-07-29T14:09:25;30.90;41.50
65231;DHT22;51813;40.666;16.602;2023-07-29T14:11:51;31.00;39.50
65231;DHT22;51813;40.666;16.602;2023-07-29T14:14:16;31.10;40.40
65231;DHT22;51813;40.666;16.602;2023-07-29T14:16:43;31.00;40.40
65231;DHT22;51813;40.666;16.602;2023-07-29T14:19:08;31.00;40.30
65231;DHT22;51813;40.666;16.602;2023-07-29T14:21:34;31.00;40.60
65231;DHT22;51813;40.666;16.602;2023-07-29T14:24:00;31.10;40.60
65231;DHT22;51813;40.666;16.602;2023-07-29T14:26:25;31.00;39.90
65231;DHT22;51813;40.666;16.602;2023-07-29T14:28:51;31.00;39.70
65231;DHT22;51813;40.666;16.602;2023-07-29T14:31:17;31.00;40.60
65231;DHT22;51813;40.666;16.602;2023-07-29T14:33:43;31.10;40.30
65231;DHT22;51813;40.666;16.602;2023-07-29T14:36:09;31.10;40.10
65231;DHT22;51813;40.666;16.602;2023-07-29T14:38:36;31.10;40.70
65231;DHT22;51813;40.666;16.602;2023-07-29T14:41:03;31.10;40.80
65231;DHT22;51813;40.666;16.602;2023-07-29T14:43:30;31.10;40.90
65231;DHT22;51813;40.666;16.602;2023-07-29T14:45:56;31.10;40.80
65231;DHT22;51813;40.666;16.602;2023-07-29T14:48:22;31.00;40.40
65231;DHT22;51813;40.666;16.602;2023-07-29T14:50:48;31.10;40.90
65231;DHT22;51813;40.666;16.602;2023-07-29T14:53:13;31.10;40.70
65231;DHT22;51813;40.666;16.602;2023-07-29T14:55:39;31.10;40.60
65231;DHT22;51813;40.666;16.602;2023-07-29T14:58:05;31.10;41.00
65231;DHT22;51813;40.666;16.602;2023-07-29T15:00:31;31.10;40.70
65231;DHT22;51813;40.666;16.602;2023-07-29T15:02:56;31.10;40.40
65231;DHT22;51813;40.666;16.602;2023-07-29T15:05:22;31.10;40.80
65231;DHT22;51813;40.666;16.602;2023-07-29T15:07:48;31.20;41.10
65231;DHT22;51813;40.666;16.602;2023-07-29T15:10:14;31.10;40.60
65231;DHT22;51813;40.666;16.602;2023-07-29T15:12:41;31.10;40.70
65231;DHT22;51813;40.666;16.602;2023-07-29T15:15:08;31.10;42.20
65231;DHT22;51813;40.666;16.602;2023-07-29T15:17:34;31.20;41.50
65231;DHT22;51813;40.666;16.602;2023-07-29T15:19:59;31.20;41.30
65231;DHT22;51813;40.666;16.602;2023-07-29T15:22:25;31.10;41.70
65231;DHT22;51813;40.666;16.602;2023-07-29T15:24:51;30.90;42.30
65231;DHT22;51813;40.666;16.602;2023-07-29T15:27:17;30.80;42.30
65231;DHT22;51813;40.666;16.602;2023-07-29T15:29:42;30.60;42.70
65231;DHT22;51813;40.666;16.602;2023-07-29T15:32:08;30.50;43.60